sensor_id;sensor_type;location;lat;lon;timestamp;P1;durP1;ratioP1;P2;durP2;ratioP2
19776;SDS011;10047;42.490;26.012;2022-11-12T00:00:38;6.13;;;5.50;;
19776;SDS011;10047;42.490;26.012;2022-11-12T00:03:04;6.25;;;5.30;;
19776;SDS011;10047;42.490;26.012;2022-11-12T00:05:30;6.43;;;5.40;;
19776;SDS011;10047;42.490;26.012;2022-11-12T00:07:56;7.07;;;5.03;;
19776;SDS011;10047;42.490;26.012;2022-11-12T00:10:21;5.45;;;4.80;;
19776;SDS011;10047;42.490;26.012;2022-11-12T00:12:47;6.10;;;4.95;;
19776;SDS011;10047;42.490;26.012;2022-11-12T00:15:13;5.03;;;4.38;;
19776;SDS011;10047;42.490;26.012;2022-11-12T00:17:38;7.07;;;5.25;;
19776;SDS011;10047;42.490;26.012;2022-11-12T00:20:04;6.10;;;5.18;;
19776;SDS011;10047;42.490;26.012;2022-11-12T00:22:30;5.75;;;5.10;;
19776;SDS011;10047;42.490;26.012;2022-11-12T00:24:56;5.80;;;5.18;;
19776;SDS011;10047;42.490;26.012;2022-11-12T00:27:22;6.30;;;5.40;;
19776;SDS011;10047;42.490;26.012;2022-11-12T00:29:47;5.78;;;4.90;;
19776;SDS011;10047;42.490;26.012;2022-11-12T00:32:12;5.57;;;4.97;;
19776;SDS011;10047;42.490;26.012;2022-11-12T00:34:38;5.80;;;5.00;;
19776;SDS011;10047;42.490;26.012;2022-11-12T00:37:03;6.28;;;5.10;;
19776;SDS011;10047;42.490;26.012;2022-11-12T00:39:29;6.47;;;5.28;;
19776;SDS011;10047;42.490;26.012;2022-11-12T00:41:55;6.80;;;5.28;;
19776;SDS011;10047;42.490;26.012;2022-11-12T00:44:20;5.80;;;4.97;;
19776;SDS011;10047;42.490;26.012;2022-11-12T00:46:46;5.90;;;5.05;;
19776;SDS011;10047;42.490;26.012;2022-11-12T00:49:12;6.35;;;5.50;;
19776;SDS011;10047;42.490;26.012;2022-11-12T00:51:38;9.07;;;5.55;;
19776;SDS011;10047;42.490;26.012;2022-11-12T00:54:12;6.68;;;5.38;;
19776;SDS011;10047;42.490;26.012;2022-11-12T00:56:37;7.13;;;4.82;;
19776;SDS011;10047;42.490;26.012;2022-11-12T00:59:02;5.95;;;5.30;;
19776;SDS011;10047;42.490;26.012;2022-11-12T01:01:28;8.43;;;4.97;;
19776;SDS011;10047;42.490;26.012;2022-11-12T01:03:54;6.43;;;4.88;;
19776;SDS011;10047;42.490;26.012;2022-11-12T01:06:21;6.63;;;5.03;;
19776;SDS011;10047;42.490;26.012;2022-11-12T01:08:48;7.47;;;5.05;;
19776;SDS011;10047;42.490;26.012;2022-11-12T01:11:15;5.82;;;4.85;;
19776;SDS011;10047;42.490;26.012;2022-11-12T01:13:52;5.55;;;4.90;;
19776;SDS011;10047;42.490;26.012;2022-11-12T01:16:23;6.40;;;5.45;;
19776;SDS011;10047;42.490;26.012;2022-11-12T01:18:53;6.50;;;5.38;;
19776;SDS011;10047;42.490;26.012;2022-11-12T01:21:21;7.25;;;5.30;;
19776;SDS011;10047;42.490;26.012;2022-11-12T01:23:48;6.80;;;4.63;;
19776;SDS011;10047;42.490;26.012;2022-11-12T01:26:14;5.63;;;4.82;;
19776;SDS011;10047;42.490;26.012;2022-11-12T01:28:41;7.22;;;4.90;;
19776;SDS011;10047;42.490;26.012;2022-11-12T01:33:48;5.45;;;4.20;;
19776;SDS011;10047;42.490;26.012;2022-11-12T01:36:17;4.00;;;3.60;;
19776;SDS011;10047;42.490;26.012;2022-11-12T01:38:46;5.20;;;4.00;;
19776;SDS011;10047;42.490;26.012;2022-11-12T01:41:16;5.28;;;4.22;;
19776;SDS011;10047;42.490;26.012;2022-11-12T01:43:45;5.53;;;3.70;;
19776;SDS011;10047;42.490;26.012;2022-11-12T01:46:25;5.55;;;3.63;;
19776;SDS011;10047;42.490;26.012;2022-11-12T01:48:57;5.63;;;3.85;;
19776;SDS011;10047;42.490;26.012;2022-11-12T01:51:27;4.72;;;3.92;;
19776;SDS011;10047;42.490;26.012;2022-11-12T01:53:59;5.30;;;3.50;;
19776;SDS011;10047;42.490;26.012;2022-11-12T01:56:29;4.32;;;3.80;;
19776;SDS011;10047;42.490;26.012;2022-11-12T01:58:58;4.50;;;3.78;;
19776;SDS011;10047;42.490;26.012;2022-11-12T02:01:31;4.07;;;3.25;;
19776;SDS011;10047;42.490;26.012;2022-11-12T02:03:56;4.38;;;3.65;;
19776;SDS011;10047;42.490;26.012;2022-11-12T02:06:22;6.40;;;3.30;;
19776;SDS011;10047;42.490;26.012;2022-11-12T02:08:49;4.65;;;3.67;;
19776;SDS011;10047;42.490;26.012;2022-11-12T02:11:17;4.78;;;3.40;;
19776;SDS011;10047;42.490;26.012;2022-11-12T02:13:44;5.03;;;4.20;;
19776;SDS011;10047;42.490;26.012;2022-11-12T02:16:58;4.80;;;3.97;;
19776;SDS011;10047;42.490;26.012;2022-11-12T02:19:16;5.78;;;4.20;;
19776;SDS011;10047;42.490;26.012;2022-11-12T02:21:42;5.32;;;4.40;;
19776;SDS011;10047;42.490;26.012;2022-11-12T02:26:38;6.25;;;4.75;;
19776;SDS011;10047;42.490;26.012;2022-11-12T02:29:07;4.70;;;3.75;;
19776;SDS011;10047;42.490;26.012;2022-11-12T02:31:33;6.07;;;4.07;;
19776;SDS011;10047;42.490;26.012;2022-11-12T02:33:59;5.78;;;3.60;;
19776;SDS011;10047;42.490;26.012;2022-11-12T02:36:25;6.43;;;4.97;;
19776;SDS011;10047;42.490;26.012;2022-11-12T02:38:51;4.28;;;3.17;;
19776;SDS011;10047;42.490;26.012;2022-11-12T02:41:17;4.25;;;3.40;;
19776;SDS011;10047;42.490;26.012;2022-11-12T02:43:43;4.80;;;3.80;;
19776;SDS011;10047;42.490;26.012;2022-11-12T02:46:08;4.00;;;3.53;;
19776;SDS011;10047;42.490;26.012;2022-11-12T02:48:34;4.47;;;3.70;;
19776;SDS011;10047;42.490;26.012;2022-11-12T02:50:59;6.35;;;4.22;;
19776;SDS011;10047;42.490;26.012;2022-11-12T02:53:25;5.40;;;3.97;;
19776;SDS011;10047;42.490;26.012;2022-11-12T02:55:51;5.22;;;4.05;;
19776;SDS011;10047;42.490;26.012;2022-11-12T02:58:16;6.00;;;4.20;;
19776;SDS011;10047;42.490;26.012;2022-11-12T03:00:42;8.63;;;4.63;;
19776;SDS011;10047;42.490;26.012;2022-11-12T03:03:07;5.45;;;4.25;;
19776;SDS011;10047;42.490;26.012;2022-11-12T03:05:33;6.03;;;4.40;;
19776;SDS011;10047;42.490;26.012;2022-11-12T03:08:00;4.90;;;4.10;;
19776;SDS011;10047;42.490;26.012;2022-11-12T03:10:27;5.97;;;4.47;;
19776;SDS011;10047;42.490;26.012;2022-11-12T03:12:57;6.80;;;4.18;;
19776;SDS011;10047;42.490;26.012;2022-11-12T03:15:24;4.35;;;3.35;;
19776;SDS011;10047;42.490;26.012;2022-11-12T03:17:50;4.72;;;3.60;;
19776;SDS011;10047;42.490;26.012;2022-11-12T03:20:16;5.53;;;3.65;;
19776;SDS011;10047;42.490;26.012;2022-11-12T03:22:41;5.45;;;3.83;;
19776;SDS011;10047;42.490;26.012;2022-11-12T03:25:08;3.78;;;3.38;;
19776;SDS011;10047;42.490;26.012;2022-11-12T03:27:34;3.97;;;3.15;;
19776;SDS011;10047;42.490;26.012;2022-11-12T03:29:59;3.45;;;3.15;;
19776;SDS011;10047;42.490;26.012;2022-11-12T03:32:25;4.97;;;3.63;;
19776;SDS011;10047;42.490;26.012;2022-11-12T03:34:50;4.72;;;3.50;;
19776;SDS011;10047;42.490;26.012;2022-11-12T03:37:16;4.05;;;3.40;;
19776;SDS011;10047;42.490;26.012;2022-11-12T03:39:41;5.18;;;3.60;;
19776;SDS011;10047;42.490;26.012;2022-11-12T03:42:07;4.38;;;3.67;;
19776;SDS011;10047;42.490;26.012;2022-11-12T03:44:33;5.30;;;4.03;;
19776;SDS011;10047;42.490;26.012;2022-11-12T03:46:58;5.63;;;3.92;;
19776;SDS011;10047;42.490;26.012;2022-11-12T03:49:24;4.70;;;3.70;;
19776;SDS011;10047;42.490;26.012;2022-11-12T03:51:49;4.57;;;3.88;;
19776;SDS011;10047;42.490;26.012;2022-11-12T03:54:15;4.50;;;3.67;;
19776;SDS011;10047;42.490;26.012;2022-11-12T03:56:40;6.28;;;3.75;;
19776;SDS011;10047;42.490;26.012;2022-11-12T03:59:06;5.63;;;4.20;;
19776;SDS011;10047;42.490;26.012;2022-11-12T04:01:31;5.25;;;3.67;;
19776;SDS011;10047;42.490;26.012;2022-11-12T04:03:56;5.90;;;4.43;;
19776;SDS011;10047;42.490;26.012;2022-11-12T04:06:22;5.18;;;3.65;;
19776;SDS011;10047;42.490;26.012;2022-11-12T04:09:06;6.00;;;4.00;;
19776;SDS011;10047;42.490;26.012;2022-11-12T04:11:31;6.38;;;4.30;;
19776;SDS011;10047;42.490;26.012;2022-11-12T04:13:57;6.28;;;4.70;;
19776;SDS011;10047;42.490;26.012;2022-11-12T04:16:23;4.82;;;4.07;;
19776;SDS011;10047;42.490;26.012;2022-11-12T04:19:08;6.10;;;4.40;;
19776;SDS011;10047;42.490;26.012;2022-11-12T04:21:57;7.80;;;5.07;;
19776;SDS011;10047;42.490;26.012;2022-11-12T04:27:26;6.25;;;4.50;;
19776;SDS011;10047;42.490;26.012;2022-11-12T04:29:56;6.22;;;4.95;;
19776;SDS011;10047;42.490;26.012;2022-11-12T04:32:45;7.13;;;4.95;;
19776;SDS011;10047;42.490;26.012;2022-11-12T04:35:24;5.65;;;4.82;;
19776;SDS011;10047;42.490;26.012;2022-11-12T04:37:50;5.80;;;4.95;;
19776;SDS011;10047;42.490;26.012;2022-11-12T04:40:17;6.90;;;4.95;;
19776;SDS011;10047;42.490;26.012;2022-11-12T04:43:07;7.15;;;4.80;;
19776;SDS011;10047;42.490;26.012;2022-11-12T04:45:53;5.50;;;4.78;;
19776;SDS011;10047;42.490;26.012;2022-11-12T04:48:19;5.43;;;4.45;;
19776;SDS011;10047;42.490;26.012;2022-11-12T04:50:47;5.82;;;4.28;;
19776;SDS011;10047;42.490;26.012;2022-11-12T04:53:16;5.47;;;3.50;;
19776;SDS011;10047;42.490;26.012;2022-11-12T04:55:42;5.40;;;3.90;;
19776;SDS011;10047;42.490;26.012;2022-11-12T04:58:08;5.47;;;3.60;;
19776;SDS011;10047;42.490;26.012;2022-11-12T05:00:33;4.93;;;4.10;;
19776;SDS011;10047;42.490;26.012;2022-11-12T05:02:59;5.45;;;3.63;;
19776;SDS011;10047;42.490;26.012;2022-11-12T05:05:24;7.03;;;4.05;;
19776;SDS011;10047;42.490;26.012;2022-11-12T05:07:49;6.68;;;3.58;;
19776;SDS011;10047;42.490;26.012;2022-11-12T05:10:15;7.18;;;4.47;;
19776;SDS011;10047;42.490;26.012;2022-11-12T05:12:41;5.57;;;3.97;;
19776;SDS011;10047;42.490;26.012;2022-11-12T05:15:07;5.47;;;4.00;;
19776;SDS011;10047;42.490;26.012;2022-11-12T05:17:33;5.95;;;3.78;;
19776;SDS011;10047;42.490;26.012;2022-11-12T05:19:59;4.88;;;4.07;;
19776;SDS011;10047;42.490;26.012;2022-11-12T05:22:24;4.95;;;4.10;;
19776;SDS011;10047;42.490;26.012;2022-11-12T05:24:50;7.97;;;4.22;;
19776;SDS011;10047;42.490;26.012;2022-11-12T05:27:16;7.68;;;4.97;;
19776;SDS011;10047;42.490;26.012;2022-11-12T05:29:44;6.35;;;4.90;;
19776;SDS011;10047;42.490;26.012;2022-11-12T05:32:12;6.72;;;5.13;;
19776;SDS011;10047;42.490;26.012;2022-11-12T05:34:39;7.25;;;5.22;;
19776;SDS011;10047;42.490;26.012;2022-11-12T05:37:05;7.55;;;5.15;;
19776;SDS011;10047;42.490;26.012;2022-11-12T05:39:31;7.93;;;5.15;;
19776;SDS011;10047;42.490;26.012;2022-11-12T05:41:57;11.18;;;6.28;;
19776;SDS011;10047;42.490;26.012;2022-11-12T05:44:23;11.75;;;7.18;;
19776;SDS011;10047;42.490;26.012;2022-11-12T05:46:48;12.90;;;7.40;;
19776;SDS011;10047;42.490;26.012;2022-11-12T05:49:14;12.15;;;6.90;;
19776;SDS011;10047;42.490;26.012;2022-11-12T05:51:40;10.05;;;7.43;;
19776;SDS011;10047;42.490;26.012;2022-11-12T05:54:06;11.00;;;7.57;;
19776;SDS011;10047;42.490;26.012;2022-11-12T05:56:32;8.88;;;7.22;;
19776;SDS011;10047;42.490;26.012;2022-11-12T05:58:57;9.45;;;7.03;;
19776;SDS011;10047;42.490;26.012;2022-11-12T06:01:23;11.38;;;7.35;;
19776;SDS011;10047;42.490;26.012;2022-11-12T06:03:48;9.82;;;7.35;;
19776;SDS011;10047;42.490;26.012;2022-11-12T06:06:14;11.00;;;7.93;;
19776;SDS011;10047;42.490;26.012;2022-11-12T06:08:39;11.57;;;8.55;;
19776;SDS011;10047;42.490;26.012;2022-11-12T06:11:05;13.63;;;8.93;;
19776;SDS011;10047;42.490;26.012;2022-11-12T06:13:30;10.98;;;8.50;;
19776;SDS011;10047;42.490;26.012;2022-11-12T06:15:56;11.40;;;8.68;;
19776;SDS011;10047;42.490;26.012;2022-11-12T06:18:22;15.18;;;10.00;;
19776;SDS011;10047;42.490;26.012;2022-11-12T06:20:48;19.00;;;12.88;;
19776;SDS011;10047;42.490;26.012;2022-11-12T06:23:33;18.60;;;12.95;;
19776;SDS011;10047;42.490;26.012;2022-11-12T06:25:58;15.95;;;12.30;;
19776;SDS011;10047;42.490;26.012;2022-11-12T06:28:24;12.80;;;9.95;;
19776;SDS011;10047;42.490;26.012;2022-11-12T06:30:49;11.10;;;9.38;;
19776;SDS011;10047;42.490;26.012;2022-11-12T06:33:15;12.30;;;9.82;;
19776;SDS011;10047;42.490;26.012;2022-11-12T06:35:40;12.02;;;9.32;;
19776;SDS011;10047;42.490;26.012;2022-11-12T06:38:06;12.07;;;9.68;;
19776;SDS011;10047;42.490;26.012;2022-11-12T06:40:31;12.60;;;9.90;;
19776;SDS011;10047;42.490;26.012;2022-11-12T06:42:57;13.68;;;9.63;;
19776;SDS011;10047;42.490;26.012;2022-11-12T06:45:23;12.38;;;8.70;;
19776;SDS011;10047;42.490;26.012;2022-11-12T06:47:49;11.50;;;8.88;;
19776;SDS011;10047;42.490;26.012;2022-11-12T06:50:14;12.35;;;9.15;;
19776;SDS011;10047;42.490;26.012;2022-11-12T06:52:40;20.73;;;9.13;;
19776;SDS011;10047;42.490;26.012;2022-11-12T06:55:05;18.23;;;9.25;;
19776;SDS011;10047;42.490;26.012;2022-11-12T06:57:32;11.18;;;8.68;;
19776;SDS011;10047;42.490;26.012;2022-11-12T06:59:58;11.43;;;9.20;;
19776;SDS011;10047;42.490;26.012;2022-11-12T07:02:24;12.00;;;8.82;;
19776;SDS011;10047;42.490;26.012;2022-11-12T07:04:49;12.23;;;8.85;;
19776;SDS011;10047;42.490;26.012;2022-11-12T07:07:14;11.60;;;9.48;;
19776;SDS011;10047;42.490;26.012;2022-11-12T07:09:40;10.55;;;8.15;;
19776;SDS011;10047;42.490;26.012;2022-11-12T07:12:05;20.05;;;9.57;;
19776;SDS011;10047;42.490;26.012;2022-11-12T07:14:31;16.70;;;9.27;;
19776;SDS011;10047;42.490;26.012;2022-11-12T07:16:56;61.63;;;12.63;;
19776;SDS011;10047;42.490;26.012;2022-11-12T07:19:22;10.57;;;8.10;;
19776;SDS011;10047;42.490;26.012;2022-11-12T07:21:47;50.92;;;11.43;;
19776;SDS011;10047;42.490;26.012;2022-11-12T07:24:12;30.15;;;8.98;;
19776;SDS011;10047;42.490;26.012;2022-11-12T07:26:38;11.23;;;7.40;;
19776;SDS011;10047;42.490;26.012;2022-11-12T07:29:03;8.52;;;6.80;;
19776;SDS011;10047;42.490;26.012;2022-11-12T07:31:31;8.73;;;7.43;;
19776;SDS011;10047;42.490;26.012;2022-11-12T07:33:56;8.55;;;7.40;;
19776;SDS011;10047;42.490;26.012;2022-11-12T07:36:22;9.60;;;7.70;;
19776;SDS011;10047;42.490;26.012;2022-11-12T07:38:49;10.07;;;8.35;;
19776;SDS011;10047;42.490;26.012;2022-11-12T07:41:17;10.38;;;8.48;;
19776;SDS011;10047;42.490;26.012;2022-11-12T07:43:45;9.10;;;7.90;;
19776;SDS011;10047;42.490;26.012;2022-11-12T07:46:21;12.48;;;9.07;;
19776;SDS011;10047;42.490;26.012;2022-11-12T07:48:49;10.93;;;8.82;;
19776;SDS011;10047;42.490;26.012;2022-11-12T07:53:42;10.15;;;8.57;;
19776;SDS011;10047;42.490;26.012;2022-11-12T07:56:09;9.52;;;8.10;;
19776;SDS011;10047;42.490;26.012;2022-11-12T07:58:36;11.55;;;8.25;;
19776;SDS011;10047;42.490;26.012;2022-11-12T08:03:58;13.20;;;9.27;;
19776;SDS011;10047;42.490;26.012;2022-11-12T08:06:25;11.57;;;9.55;;
19776;SDS011;10047;42.490;26.012;2022-11-12T08:08:54;10.55;;;9.30;;
19776;SDS011;10047;42.490;26.012;2022-11-12T08:11:20;11.35;;;7.75;;
19776;SDS011;10047;42.490;26.012;2022-11-12T08:13:46;19.70;;;17.58;;
19776;SDS011;10047;42.490;26.012;2022-11-12T08:16:12;19.25;;;17.08;;
19776;SDS011;10047;42.490;26.012;2022-11-12T08:18:37;20.27;;;17.42;;
19776;SDS011;10047;42.490;26.012;2022-11-12T08:21:04;14.85;;;13.27;;
19776;SDS011;10047;42.490;26.012;2022-11-12T08:23:31;15.75;;;13.15;;
19776;SDS011;10047;42.490;26.012;2022-11-12T08:26:00;15.40;;;13.20;;
19776;SDS011;10047;42.490;26.012;2022-11-12T08:28:27;11.88;;;10.52;;
19776;SDS011;10047;42.490;26.012;2022-11-12T08:30:53;12.45;;;10.15;;
19776;SDS011;10047;42.490;26.012;2022-11-12T08:33:19;11.32;;;9.43;;
19776;SDS011;10047;42.490;26.012;2022-11-12T08:35:44;11.10;;;9.90;;
19776;SDS011;10047;42.490;26.012;2022-11-12T08:38:10;12.93;;;10.52;;
19776;SDS011;10047;42.490;26.012;2022-11-12T08:40:38;11.45;;;10.25;;
19776;SDS011;10047;42.490;26.012;2022-11-12T08:43:04;14.32;;;11.60;;
19776;SDS011;10047;42.490;26.012;2022-11-12T08:45:32;10.90;;;9.73;;
19776;SDS011;10047;42.490;26.012;2022-11-12T08:48:00;10.60;;;9.50;;
19776;SDS011;10047;42.490;26.012;2022-11-12T08:50:27;11.73;;;9.07;;
19776;SDS011;10047;42.490;26.012;2022-11-12T08:53:00;13.35;;;9.27;;
19776;SDS011;10047;42.490;26.012;2022-11-12T08:55:27;9.32;;;8.07;;
19776;SDS011;10047;42.490;26.012;2022-11-12T08:57:53;11.30;;;9.18;;
19776;SDS011;10047;42.490;26.012;2022-11-12T09:00:19;11.77;;;9.15;;
19776;SDS011;10047;42.490;26.012;2022-11-12T09:02:45;12.18;;;9.45;;
19776;SDS011;10047;42.490;26.012;2022-11-12T09:05:10;11.80;;;9.25;;
19776;SDS011;10047;42.490;26.012;2022-11-12T09:07:36;11.30;;;10.20;;
19776;SDS011;10047;42.490;26.012;2022-11-12T09:10:01;14.77;;;12.98;;
19776;SDS011;10047;42.490;26.012;2022-11-12T09:12:27;13.57;;;12.13;;
19776;SDS011;10047;42.490;26.012;2022-11-12T09:14:52;13.73;;;10.80;;
19776;SDS011;10047;42.490;26.012;2022-11-12T09:17:18;13.00;;;10.32;;
19776;SDS011;10047;42.490;26.012;2022-11-12T09:19:43;11.02;;;9.75;;
19776;SDS011;10047;42.490;26.012;2022-11-12T09:22:08;13.38;;;9.25;;
19776;SDS011;10047;42.490;26.012;2022-11-12T09:24:34;11.15;;;9.65;;
19776;SDS011;10047;42.490;26.012;2022-11-12T09:26:59;13.88;;;10.10;;
19776;SDS011;10047;42.490;26.012;2022-11-12T09:29:25;14.77;;;11.63;;
19776;SDS011;10047;42.490;26.012;2022-11-12T09:31:50;20.40;;;15.77;;
19776;SDS011;10047;42.490;26.012;2022-11-12T09:34:16;17.15;;;14.88;;
19776;SDS011;10047;42.490;26.012;2022-11-12T09:36:41;19.63;;;17.42;;
19776;SDS011;10047;42.490;26.012;2022-11-12T09:39:07;24.73;;;21.25;;
19776;SDS011;10047;42.490;26.012;2022-11-12T09:41:39;28.92;;;24.05;;
19776;SDS011;10047;42.490;26.012;2022-11-12T09:44:08;18.38;;;15.65;;
19776;SDS011;10047;42.490;26.012;2022-11-12T09:49:35;19.95;;;16.40;;
19776;SDS011;10047;42.490;26.012;2022-11-12T09:52:24;18.65;;;15.68;;
19776;SDS011;10047;42.490;26.012;2022-11-12T09:55:03;19.42;;;16.58;;
19776;SDS011;10047;42.490;26.012;2022-11-12T09:57:35;20.30;;;14.90;;
19776;SDS011;10047;42.490;26.012;2022-11-12T10:00:01;16.17;;;12.65;;
19776;SDS011;10047;42.490;26.012;2022-11-12T10:02:33;20.30;;;16.40;;
19776;SDS011;10047;42.490;26.012;2022-11-12T10:05:24;29.73;;;21.95;;
19776;SDS011;10047;42.490;26.012;2022-11-12T10:17:56;26.92;;;23.63;;
19776;SDS011;10047;42.490;26.012;2022-11-12T10:20:19;23.58;;;18.20;;
19776;SDS011;10047;42.490;26.012;2022-11-12T10:25:47;15.90;;;12.68;;
19776;SDS011;10047;42.490;26.012;2022-11-12T10:28:29;16.17;;;13.55;;
19776;SDS011;10047;42.490;26.012;2022-11-12T10:31:00;18.60;;;14.23;;
19776;SDS011;10047;42.490;26.012;2022-11-12T10:33:49;40.80;;;27.30;;
19776;SDS011;10047;42.490;26.012;2022-11-12T10:36:25;26.55;;;19.88;;
19776;SDS011;10047;42.490;26.012;2022-11-12T10:38:55;21.70;;;16.45;;
19776;SDS011;10047;42.490;26.012;2022-11-12T10:43:58;20.10;;;13.55;;
19776;SDS011;10047;42.490;26.012;2022-11-12T10:46:31;15.35;;;12.57;;
19776;SDS011;10047;42.490;26.012;2022-11-12T10:49:02;16.70;;;12.15;;
19776;SDS011;10047;42.490;26.012;2022-11-12T10:51:35;13.45;;;10.88;;
19776;SDS011;10047;42.490;26.012;2022-11-12T10:54:27;19.23;;;14.60;;
19776;SDS011;10047;42.490;26.012;2022-11-12T10:57:22;14.68;;;13.05;;
19776;SDS011;10047;42.490;26.012;2022-11-12T11:00:13;15.85;;;13.77;;
19776;SDS011;10047;42.490;26.012;2022-11-12T11:02:52;15.10;;;13.13;;
19776;SDS011;10047;42.490;26.012;2022-11-12T11:05:28;14.75;;;13.02;;
19776;SDS011;10047;42.490;26.012;2022-11-12T11:07:59;15.98;;;13.63;;
19776;SDS011;10047;42.490;26.012;2022-11-12T11:10:27;20.95;;;17.63;;
19776;SDS011;10047;42.490;26.012;2022-11-12T11:15:56;18.05;;;16.00;;
19776;SDS011;10047;42.490;26.012;2022-11-12T11:18:27;20.10;;;16.52;;
19776;SDS011;10047;42.490;26.012;2022-11-12T11:23:46;21.33;;;16.40;;
19776;SDS011;10047;42.490;26.012;2022-11-12T11:26:30;23.27;;;19.95;;
19776;SDS011;10047;42.490;26.012;2022-11-12T11:31:49;29.50;;;26.40;;
19776;SDS011;10047;42.490;26.012;2022-11-12T11:45:16;20.77;;;17.10;;
19776;SDS011;10047;42.490;26.012;2022-11-12T11:50:45;35.90;;;26.40;;
19776;SDS011;10047;42.490;26.012;2022-11-12T11:53:39;36.20;;;30.60;;
19776;SDS011;10047;42.490;26.012;2022-11-12T11:58:54;29.80;;;25.33;;
19776;SDS011;10047;42.490;26.012;2022-11-12T12:09:35;32.88;;;25.58;;
19776;SDS011;10047;42.490;26.012;2022-11-12T12:23:55;24.00;;;20.27;;
19776;SDS011;10047;42.490;26.012;2022-11-12T12:25:52;20.85;;;17.35;;
19776;SDS011;10047;42.490;26.012;2022-11-12T12:30:50;16.60;;;14.57;;
19776;SDS011;10047;42.490;26.012;2022-11-12T12:36:26;18.20;;;14.90;;
19776;SDS011;10047;42.490;26.012;2022-11-12T12:39:10;16.70;;;13.48;;
19776;SDS011;10047;42.490;26.012;2022-11-12T12:44:22;8.07;;;6.65;;
19776;SDS011;10047;42.490;26.012;2022-11-12T12:47:11;6.80;;;6.07;;
19776;SDS011;10047;42.490;26.012;2022-11-12T12:49:38;7.13;;;5.57;;
19776;SDS011;10047;42.490;26.012;2022-11-12T12:52:05;6.72;;;6.03;;
19776;SDS011;10047;42.490;26.012;2022-11-12T12:56:59;10.30;;;7.28;;
19776;SDS011;10047;42.490;26.012;2022-11-12T12:59:25;7.68;;;6.85;;
19776;SDS011;10047;42.490;26.012;2022-11-12T13:02:33;8.35;;;6.65;;
19776;SDS011;10047;42.490;26.012;2022-11-12T13:04:50;9.65;;;6.97;;
19776;SDS011;10047;42.490;26.012;2022-11-12T13:07:22;11.77;;;8.45;;
19776;SDS011;10047;42.490;26.012;2022-11-12T13:15:44;12.93;;;8.15;;
19776;SDS011;10047;42.490;26.012;2022-11-12T13:18:09;8.32;;;6.97;;
19776;SDS011;10047;42.490;26.012;2022-11-12T13:21:10;8.40;;;6.35;;
19776;SDS011;10047;42.490;26.012;2022-11-12T13:23:49;10.60;;;6.70;;
19776;SDS011;10047;42.490;26.012;2022-11-12T13:26:45;8.25;;;6.95;;
19776;SDS011;10047;42.490;26.012;2022-11-12T13:37:47;7.88;;;6.72;;
19776;SDS011;10047;42.490;26.012;2022-11-12T13:40:38;8.18;;;6.35;;
19776;SDS011;10047;42.490;26.012;2022-11-12T13:45:46;9.13;;;6.28;;
19776;SDS011;10047;42.490;26.012;2022-11-12T13:48:22;7.70;;;6.50;;
19776;SDS011;10047;42.490;26.012;2022-11-12T13:50:54;7.85;;;6.70;;
19776;SDS011;10047;42.490;26.012;2022-11-12T13:53:29;7.97;;;7.13;;
19776;SDS011;10047;42.490;26.012;2022-11-12T13:55:57;8.68;;;7.50;;
19776;SDS011;10047;42.490;26.012;2022-11-12T13:58:30;8.25;;;7.32;;
19776;SDS011;10047;42.490;26.012;2022-11-12T14:01:01;7.35;;;6.50;;
19776;SDS011;10047;42.490;26.012;2022-11-12T14:03:50;7.72;;;6.30;;
19776;SDS011;10047;42.490;26.012;2022-11-12T14:06:30;7.22;;;6.25;;
19776;SDS011;10047;42.490;26.012;2022-11-12T14:09:07;8.07;;;6.50;;
19776;SDS011;10047;42.490;26.012;2022-11-12T14:12:28;10.65;;;6.93;;
19776;SDS011;10047;42.490;26.012;2022-11-12T14:17:20;11.15;;;9.43;;
19776;SDS011;10047;42.490;26.012;2022-11-12T14:20:03;9.75;;;7.93;;
19776;SDS011;10047;42.490;26.012;2022-11-12T14:22:44;9.35;;;7.40;;
19776;SDS011;10047;42.490;26.012;2022-11-12T14:25:15;8.35;;;7.03;;
19776;SDS011;10047;42.490;26.012;2022-11-12T14:27:43;9.73;;;6.97;;
19776;SDS011;10047;42.490;26.012;2022-11-12T14:32:41;7.60;;;6.20;;
19776;SDS011;10047;42.490;26.012;2022-11-12T14:40:44;6.32;;;5.00;;
19776;SDS011;10047;42.490;26.012;2022-11-12T14:46:00;5.75;;;4.70;;
19776;SDS011;10047;42.490;26.012;2022-11-12T14:48:26;5.85;;;4.85;;
19776;SDS011;10047;42.490;26.012;2022-11-12T14:50:58;5.10;;;4.60;;
19776;SDS011;10047;42.490;26.012;2022-11-12T14:53:30;6.32;;;4.88;;
19776;SDS011;10047;42.490;26.012;2022-11-12T14:55:58;6.40;;;5.18;;
19776;SDS011;10047;42.490;26.012;2022-11-12T14:58:26;6.22;;;4.95;;
19776;SDS011;10047;42.490;26.012;2022-11-12T15:00:53;5.88;;;4.70;;
19776;SDS011;10047;42.490;26.012;2022-11-12T15:03:22;4.85;;;4.35;;
19776;SDS011;10047;42.490;26.012;2022-11-12T15:05:53;5.80;;;4.35;;
19776;SDS011;10047;42.490;26.012;2022-11-12T15:08:34;7.55;;;5.25;;
19776;SDS011;10047;42.490;26.012;2022-11-12T15:13:51;9.43;;;6.60;;
19776;SDS011;10047;42.490;26.012;2022-11-12T15:16:23;11.23;;;8.20;;
19776;SDS011;10047;42.490;26.012;2022-11-12T15:21:50;15.27;;;9.60;;
19776;SDS011;10047;42.490;26.012;2022-11-12T15:26:57;10.82;;;7.72;;
19776;SDS011;10047;42.490;26.012;2022-11-12T15:29:43;8.30;;;6.65;;
19776;SDS011;10047;42.490;26.012;2022-11-12T15:39:47;8.45;;;6.80;;
19776;SDS011;10047;42.490;26.012;2022-11-12T15:42:37;9.40;;;7.47;;
19776;SDS011;10047;42.490;26.012;2022-11-12T15:45:09;8.95;;;7.43;;
19776;SDS011;10047;42.490;26.012;2022-11-12T15:47:39;10.52;;;7.60;;
19776;SDS011;10047;42.490;26.012;2022-11-12T15:50:21;11.25;;;8.57;;
19776;SDS011;10047;42.490;26.012;2022-11-12T15:52:48;11.57;;;8.65;;
19776;SDS011;10047;42.490;26.012;2022-11-12T15:55:14;12.98;;;8.95;;
19776;SDS011;10047;42.490;26.012;2022-11-12T15:57:51;9.90;;;7.80;;
19776;SDS011;10047;42.490;26.012;2022-11-12T16:00:20;10.27;;;6.93;;
19776;SDS011;10047;42.490;26.012;2022-11-12T16:05:20;7.68;;;6.28;;
19776;SDS011;10047;42.490;26.012;2022-11-12T16:07:45;8.57;;;6.65;;
19776;SDS011;10047;42.490;26.012;2022-11-12T16:10:15;41.20;;;28.05;;
19776;SDS011;10047;42.490;26.012;2022-11-12T16:12:42;26.38;;;19.55;;
19776;SDS011;10047;42.490;26.012;2022-11-12T16:15:11;16.08;;;13.57;;
19776;SDS011;10047;42.490;26.012;2022-11-12T16:17:38;19.20;;;16.95;;
19776;SDS011;10047;42.490;26.012;2022-11-12T16:20:14;19.33;;;17.17;;
19776;SDS011;10047;42.490;26.012;2022-11-12T16:22:41;13.75;;;12.35;;
19776;SDS011;10047;42.490;26.012;2022-11-12T16:25:07;9.75;;;8.75;;
19776;SDS011;10047;42.490;26.012;2022-11-12T16:27:32;7.53;;;6.43;;
19776;SDS011;10047;42.490;26.012;2022-11-12T16:29:58;8.10;;;6.55;;
19776;SDS011;10047;42.490;26.012;2022-11-12T16:32:24;7.85;;;6.35;;
19776;SDS011;10047;42.490;26.012;2022-11-12T16:34:49;8.52;;;6.43;;
19776;SDS011;10047;42.490;26.012;2022-11-12T16:37:14;7.88;;;6.45;;
19776;SDS011;10047;42.490;26.012;2022-11-12T16:39:40;10.57;;;8.70;;
19776;SDS011;10047;42.490;26.012;2022-11-12T16:42:08;15.20;;;11.30;;
19776;SDS011;10047;42.490;26.012;2022-11-12T16:44:34;16.10;;;13.07;;
19776;SDS011;10047;42.490;26.012;2022-11-12T16:47:00;15.68;;;11.75;;
19776;SDS011;10047;42.490;26.012;2022-11-12T16:49:27;12.77;;;11.40;;
19776;SDS011;10047;42.490;26.012;2022-11-12T16:51:53;10.30;;;9.15;;
19776;SDS011;10047;42.490;26.012;2022-11-12T16:54:18;14.23;;;10.75;;